Nueva Ocotepeque, Honduras

1:23 AM CST on April 27, 2017 (GMT -0600)
Coronel Enrique Soto Cano Air Base | | Change Station

Elev 2054 ft 14.43 °N, 89.18 °W | Updated 25 minutes ago

Clear
Clear
75 °F
Feels Like 75 °F
N
9
Wind Variable Wind from SE

Today
High -- | Low -- °F
--% Chance of Precip.
Yesterday
High -- | Low -- °F
Precip. -- in
Pressure 29.75 in
Visibility 6.2 miles
Clouds Clear
Dew Point 67 °F
Humidity 74%
Rainfall 0.00 in
Snow Depth Not available.
5:36 AM 6:12 PM
New Moon, 1% visible
METAR MHSC 270658Z AUTO 13008KT 9999 CLR 24/19 A2990 RMK AO2 SLP073 T02410193 $
Pressure 29.75 in
Visibility 6.2 miles
Clouds Clear
Dew Point 67 °F
Humidity 74%
Rainfall 0.00 in
Snow Depth Not available.
5:36 AM 6:12 PM
New Moon, 1% visible
METAR MHSC 270658Z AUTO 13008KT 9999 CLR 24/19 A2990 RMK AO2 SLP073 T02410193 $

Get Severe Weather Alerts

Thanks for signing up!

Be on the lookout for a verification email in your inbox.

You'll start receiving the daily forecast at 8 AM.

×

10-Day Weather Forecast

No radar image for this location.
×

Almanac

Astronomy

Apr. 27, 2017 Rise Set
Actual Time
Civil Twilight
Nautical Twilight
Astronomical Twilight
Moon
Length of Visible Light
Length of Day
Tomorrow will be .
, % of the Moon is Illuminated

Today's Extremes

Country Highs Country Lows

Community

WunderPhotos

WunderBlog® & News

Nearby

Air Quality

  Air Quality AQ Index Pollutant
Not available.

Snow Depth

Station Depth Elevation

Earthquake Activity

City Distance Mag. Time & Date
Minimum magnitude displayed is 2.5.

Coastal Water Temperatures

Place Temperature

Stations

Nearby Weather Stations

Station Location Temp. Windchill Dew Point Humidity Wind Precip. Elev Updated Type